createdAt,value
2023-01-12T00:04:37.995Z,7.9
2023-01-12T00:09:37.950Z,7.9
2023-01-12T00:14:37.955Z,7.9
2023-01-12T00:19:37.961Z,7.9
2023-01-12T00:24:37.977Z,7.9
2023-01-12T00:29:38.005Z,8.0
2023-01-12T00:34:37.981Z,8.0
2023-01-12T00:39:40.742Z,8.0
2023-01-12T00:44:37.979Z,7.9
2023-01-12T00:49:37.987Z,7.9
2023-01-12T00:54:37.991Z,7.9
2023-01-12T00:59:38.004Z,7.9
2023-01-12T01:04:37.990Z,7.9
2023-01-12T01:09:37.992Z,8.0
2023-01-12T01:14:37.997Z,8.0
2023-01-12T01:19:38.006Z,8.0
2023-01-12T01:24:38.002Z,8.0
2023-01-12T01:29:38.027Z,8.1
2023-01-12T01:34:38.058Z,8.1
2023-01-12T01:39:38.024Z,8.2
2023-01-12T01:44:38.017Z,8.1
2023-01-12T01:49:38.013Z,8.1
2023-01-12T01:54:38.022Z,8.1
2023-01-12T01:59:38.043Z,8.1
2023-01-12T02:04:38.018Z,8.2
2023-01-12T02:09:38.026Z,8.1
2023-01-12T02:14:38.030Z,8.1
2023-01-12T02:19:38.030Z,8.1
2023-01-12T02:24:38.043Z,8.1
2023-01-12T02:29:38.056Z,8.1
2023-01-12T02:34:38.031Z,8.1
2023-01-12T02:39:39.141Z,8.1
2023-01-12T02:44:38.059Z,8.1
2023-01-12T02:49:38.053Z,8.2
2023-01-12T02:54:38.056Z,8.1
2023-01-12T02:59:38.064Z,8.1
2023-01-12T03:04:38.052Z,8.1
2023-01-12T03:09:38.059Z,8.1
2023-01-12T03:14:38.063Z,8.1
2023-01-12T03:19:38.081Z,8.0
2023-01-12T03:24:38.079Z,8.0
2023-01-12T03:29:38.091Z,7.9
2023-01-12T03:34:38.078Z,8.0
2023-01-12T03:39:38.081Z,8.0
2023-01-12T03:44:38.083Z,8.0
2023-01-12T03:49:38.094Z,8.0
2023-01-12T03:54:38.100Z,8.0
2023-01-12T03:59:38.114Z,8.0
2023-01-12T04:04:38.096Z,8.0
2023-01-12T04:09:38.094Z,8.0
2023-01-12T04:14:38.099Z,8.1
2023-01-12T04:19:38.103Z,8.0
2023-01-12T04:24:38.105Z,8.0
2023-01-12T04:29:38.102Z,8.0
2023-01-12T04:34:38.124Z,7.9
2023-01-12T04:39:38.147Z,7.8
2023-01-12T04:44:38.120Z,7.8
2023-01-12T04:49:38.144Z,7.8
2023-01-12T04:54:38.147Z,7.8
2023-01-12T04:59:38.115Z,7.9
2023-01-12T05:04:38.132Z,7.9
2023-01-12T05:09:38.141Z,8.0
2023-01-12T05:14:38.133Z,8.1
2023-01-12T05:19:38.140Z,8.1
2023-01-12T05:24:38.142Z,8.2
2023-01-12T05:29:38.140Z,8.2
2023-01-12T05:34:38.209Z,8.2
2023-01-12T05:39:38.143Z,8.2
2023-01-12T05:44:38.155Z,8.2
2023-01-12T05:49:38.145Z,8.2
2023-01-12T05:54:38.167Z,8.4
2023-01-12T05:59:38.160Z,8.3
2023-01-12T06:04:38.265Z,8.3
2023-01-12T06:09:38.158Z,8.3
2023-01-12T06:14:38.165Z,8.3
2023-01-12T06:19:38.164Z,8.2
2023-01-12T06:24:38.191Z,8.2
2023-01-12T06:29:38.170Z,8.3
2023-01-12T06:34:38.190Z,8.2
2023-01-12T06:39:38.179Z,8.2
2023-01-12T06:44:38.186Z,8.2
2023-01-12T06:49:38.175Z,8.2
2023-01-12T06:54:38.192Z,8.2
2023-01-12T06:59:39.043Z,8.2
2023-01-12T07:04:38.324Z,8.3
2023-01-12T07:09:38.202Z,8.3
2023-01-12T07:14:38.199Z,8.4
2023-01-12T07:19:39.709Z,8.4
2023-01-12T07:24:38.247Z,8.4
2023-01-12T07:29:38.200Z,8.5
2023-01-12T07:34:38.228Z,8.5
2023-01-12T07:39:38.211Z,8.6
2023-01-12T07:44:38.220Z,8.6
2023-01-12T07:49:38.228Z,8.6
2023-01-12T07:54:38.235Z,8.7
2023-01-12T07:59:38.229Z,8.8
2023-01-12T08:04:38.235Z,8.8
2023-01-12T08:09:38.244Z,8.9
2023-01-12T08:14:38.232Z,8.9
2023-01-12T08:19:38.225Z,9.0
2023-01-12T08:24:38.254Z,9.0
2023-01-12T08:29:38.243Z,9.1
2023-01-12T08:34:38.255Z,9.1
2023-01-12T08:39:38.250Z,9.1
2023-01-12T08:44:38.257Z,9.2
2023-01-12T08:49:38.256Z,9.2
2023-01-12T08:54:38.267Z,9.3
2023-01-12T08:59:38.257Z,9.3
2023-01-12T09:04:38.274Z,9.4
2023-01-12T09:09:38.260Z,9.5
2023-01-12T09:14:38.284Z,9.5
2023-01-12T09:19:38.272Z,9.5
2023-01-12T09:24:38.286Z,9.5
2023-01-12T09:29:38.275Z,9.5
2023-01-12T09:34:38.379Z,9.6
2023-01-12T09:39:38.285Z,9.6
2023-01-12T09:44:38.342Z,9.6
2023-01-12T09:49:38.289Z,9.6
2023-01-12T09:54:38.310Z,9.6
2023-01-12T09:59:38.295Z,9.7
2023-01-12T10:04:38.323Z,9.7
2023-01-12T10:09:38.306Z,9.7
2023-01-12T10:14:38.314Z,9.7
2023-01-12T10:19:38.306Z,9.7
2023-01-12T10:24:38.328Z,9.8
2023-01-12T10:29:38.311Z,9.8
2023-01-12T10:34:38.335Z,9.9
2023-01-12T10:39:38.321Z,9.9
2023-01-12T10:44:38.318Z,9.9
2023-01-12T10:49:38.358Z,10.0
2023-01-12T10:54:38.369Z,10.1
2023-01-12T10:59:38.329Z,10.1
2023-01-12T11:04:38.341Z,10.2
2023-01-12T11:09:38.340Z,10.1
2023-01-12T11:14:38.359Z,10.1
2023-01-12T11:19:38.349Z,10.1
2023-01-12T11:24:38.348Z,10.1
2023-01-12T11:29:38.381Z,10.1
2023-01-12T11:34:38.388Z,10.2
2023-01-12T11:39:38.352Z,10.2
2023-01-12T11:44:38.349Z,10.2
2023-01-12T11:49:38.352Z,10.2
2023-01-12T11:54:38.363Z,10.1
2023-01-12T11:59:40.821Z,10.1
2023-01-12T12:04:38.382Z,10.2
2023-01-12T12:09:38.361Z,10.2
2023-01-12T12:14:38.379Z,10.2
2023-01-12T12:19:38.376Z,10.2
2023-01-12T12:24:38.382Z,10.3
2023-01-12T12:29:39.733Z,10.3
2023-01-12T12:34:38.418Z,10.3
2023-01-12T12:39:38.380Z,10.3
2023-01-12T12:44:38.392Z,10.3
2023-01-12T12:49:38.401Z,10.3
2023-01-12T12:54:38.413Z,10.3
2023-01-12T12:59:38.399Z,10.3
2023-01-12T13:04:38.446Z,10.3
2023-01-12T13:09:38.413Z,10.3
2023-01-12T13:14:38.415Z,10.3
2023-01-12T13:19:38.418Z,10.3
2023-01-12T13:24:38.427Z,10.3
2023-01-12T13:29:38.431Z,10.3
2023-01-12T13:34:38.443Z,10.3
2023-01-12T13:39:38.438Z,10.3
2023-01-12T13:44:38.420Z,10.3
2023-01-12T13:49:38.425Z,10.2
2023-01-12T13:54:38.454Z,10.2
2023-01-12T13:59:38.430Z,10.2
2023-01-12T14:04:38.454Z,10.2
2023-01-12T14:09:38.435Z,10.2
2023-01-12T14:14:38.437Z,10.2
2023-01-12T14:19:38.439Z,10.2
2023-01-12T14:24:38.460Z,10.2
2023-01-12T14:29:38.441Z,10.2
2023-01-12T14:34:38.494Z,10.1
2023-01-12T14:39:38.461Z,10.1
2023-01-12T14:44:38.462Z,10.1
2023-01-12T14:49:38.519Z,10.1
2023-01-12T14:54:38.473Z,10.0
2023-01-12T14:59:38.467Z,9.9
2023-01-12T15:04:38.544Z,9.9
2023-01-12T15:09:38.479Z,9.9
2023-01-12T15:14:38.472Z,9.9
2023-01-12T15:19:38.481Z,9.8
2023-01-12T15:24:38.504Z,9.8
2023-01-12T15:29:38.480Z,9.8
2023-01-12T15:34:38.524Z,9.8
2023-01-12T15:39:38.503Z,9.8
2023-01-12T15:44:38.537Z,9.8
2023-01-12T15:49:38.491Z,9.8
2023-01-12T15:54:38.507Z,9.8
2023-01-12T15:59:38.497Z,9.8
2023-01-12T16:04:43.720Z,9.8
2023-01-12T16:09:38.507Z,9.8
2023-01-12T16:14:38.512Z,9.8
2023-01-12T16:19:38.516Z,9.8
2023-01-12T16:24:38.521Z,9.8
2023-01-12T16:29:38.520Z,9.8
2023-01-12T16:34:38.542Z,9.8
2023-01-12T16:39:38.526Z,9.8
2023-01-12T16:44:38.533Z,9.8
2023-01-12T16:49:38.533Z,9.8
2023-01-12T16:54:38.546Z,9.7
2023-01-12T16:59:38.531Z,9.7
2023-01-12T17:04:38.558Z,9.7
2023-01-12T17:09:38.544Z,9.7
2023-01-12T17:14:38.534Z,9.7
2023-01-12T17:19:38.538Z,9.8
2023-01-12T17:24:38.557Z,9.8
2023-01-12T17:29:38.568Z,9.8
2023-01-12T17:34:38.781Z,9.8
2023-01-12T17:39:38.559Z,9.8
2023-01-12T17:44:38.559Z,9.8
2023-01-12T17:49:38.571Z,9.8
2023-01-12T17:54:38.575Z,9.8
2023-01-12T17:59:38.619Z,9.9
2023-01-12T18:04:38.591Z,9.9
2023-01-12T18:09:38.597Z,9.9
2023-01-12T18:14:38.584Z,9.9
2023-01-12T18:19:40.197Z,9.8
2023-01-12T18:24:38.587Z,9.8
2023-01-12T18:29:38.582Z,9.8
2023-01-12T18:34:38.628Z,9.8
2023-01-12T18:39:38.584Z,9.8
2023-01-12T18:44:38.602Z,9.8
2023-01-12T18:49:38.593Z,9.9
2023-01-12T18:54:38.603Z,9.9
2023-01-12T18:59:40.420Z,9.9
2023-01-12T19:04:49.232Z,9.8
2023-01-12T19:09:38.604Z,9.8
2023-01-12T19:14:38.609Z,9.9
2023-01-12T19:19:38.632Z,9.9
2023-01-12T19:24:38.625Z,9.8
2023-01-12T19:29:40.510Z,9.8
2023-01-12T19:34:38.626Z,9.8
2023-01-12T19:39:39.312Z,9.8
2023-01-12T19:44:38.631Z,9.8
2023-01-12T19:49:38.637Z,9.8
2023-01-12T19:54:38.644Z,9.8
2023-01-12T19:59:38.645Z,9.8
2023-01-12T20:04:38.649Z,9.9
2023-01-12T20:09:38.660Z,9.9
2023-01-12T20:14:38.651Z,9.9
2023-01-12T20:19:38.664Z,9.8
2023-01-12T20:24:38.751Z,9.8
2023-01-12T20:29:38.652Z,9.9
2023-01-12T20:34:38.658Z,9.9
2023-01-12T20:39:38.692Z,9.8
2023-01-12T20:44:38.667Z,9.7
2023-01-12T20:49:38.670Z,9.7
2023-01-12T20:54:39.213Z,9.7
2023-01-12T20:59:38.675Z,9.7
2023-01-12T21:04:38.675Z,9.6
2023-01-12T21:09:38.700Z,9.6
2023-01-12T21:14:38.679Z,9.6
2023-01-12T21:19:38.679Z,9.6
2023-01-12T21:24:38.694Z,9.6
2023-01-12T21:29:38.696Z,9.4
2023-01-12T21:34:38.692Z,9.2
2023-01-12T21:39:38.745Z,9.1
2023-01-12T21:44:38.736Z,9.1
2023-01-12T21:49:38.696Z,9.1
2023-01-12T21:54:38.756Z,9.1
2023-01-12T21:59:38.765Z,9.2
2023-01-12T22:04:38.702Z,9.2
2023-01-12T22:09:38.759Z,9.1
2023-01-12T22:14:38.709Z,9.0
2023-01-12T22:19:39.574Z,9.0
2023-01-12T22:24:38.733Z,9.0
2023-01-12T22:29:38.731Z,8.9
2023-01-12T22:34:38.736Z,8.8
2023-01-12T22:39:38.746Z,8.9
2023-01-12T22:44:38.746Z,8.9
2023-01-12T22:49:38.742Z,8.9
2023-01-12T22:54:38.761Z,8.9
2023-01-12T22:59:38.769Z,8.8
2023-01-12T23:04:38.936Z,8.7
2023-01-12T23:09:38.792Z,8.6
2023-01-12T23:14:38.773Z,8.6
2023-01-12T23:19:38.770Z,8.6
2023-01-12T23:24:38.784Z,8.4
2023-01-12T23:29:38.793Z,8.4
2023-01-12T23:34:38.779Z,8.4
2023-01-12T23:39:38.801Z,8.4
2023-01-12T23:44:38.791Z,8.3
2023-01-12T23:49:38.790Z,8.2
2023-01-12T23:54:38.784Z,8.2
2023-01-12T23:59:38.811Z,8.2
